createdAt,value
2023-01-05T00:02:24.539Z,1.20
2023-01-05T00:04:53.176Z,1.00
2023-01-05T00:07:24.897Z,0.80
2023-01-05T00:09:57.465Z,0.87
2023-01-05T00:12:51.627Z,0.90
2023-01-05T00:15:38.968Z,1.03
2023-01-05T00:18:33.528Z,0.87
2023-01-05T00:21:24.842Z,0.80
2023-01-05T00:26:58.846Z,1.00
2023-01-05T00:29:33.201Z,1.10
2023-01-05T00:32:03.995Z,1.07
2023-01-05T00:34:33.922Z,1.10
2023-01-05T00:37:04.399Z,0.83
2023-01-05T00:39:32.873Z,0.80
2023-01-05T00:42:01.043Z,0.70
2023-01-05T00:44:31.438Z,0.70
2023-01-05T00:47:08.975Z,1.00
2023-01-05T00:49:37.487Z,0.90
2023-01-05T00:52:07.237Z,1.00
2023-01-05T00:54:35.886Z,1.13
2023-01-05T00:57:06.228Z,1.30
2023-01-05T00:59:35.506Z,1.30
2023-01-05T01:02:06.188Z,2.20
2023-01-05T01:04:35.865Z,1.57
2023-01-05T01:07:05.705Z,2.07
2023-01-05T01:09:35.596Z,1.50
2023-01-05T01:12:08.171Z,2.00
2023-01-05T01:14:41.683Z,2.27
2023-01-05T01:17:14.279Z,2.40
2023-01-05T01:19:44.001Z,1.73
2023-01-05T01:22:12.229Z,2.00
2023-01-05T01:24:43.822Z,2.00
2023-01-05T01:27:16.311Z,2.40
2023-01-05T01:29:46.164Z,2.30
2023-01-05T01:32:24.035Z,2.10
2023-01-05T01:34:55.615Z,2.70
2023-01-05T01:37:25.017Z,2.20
2023-01-05T01:39:54.748Z,2.03
2023-01-05T01:42:29.541Z,1.97
2023-01-05T01:45:05.170Z,1.80
2023-01-05T01:47:41.444Z,1.80
2023-01-05T01:50:16.465Z,2.07
2023-01-05T01:52:51.119Z,2.20
2023-01-05T01:55:21.034Z,2.30
2023-01-05T01:57:53.369Z,2.17
2023-01-05T02:00:23.252Z,2.27
2023-01-05T02:03:00.437Z,1.90
2023-01-05T02:05:34.985Z,2.83
2023-01-05T02:08:03.463Z,2.30
2023-01-05T02:10:48.869Z,2.07
2023-01-05T02:13:36.302Z,2.60
2023-01-05T02:16:22.605Z,2.23
2023-01-05T02:19:33.400Z,2.20
2023-01-05T02:22:25.671Z,2.80
2023-01-05T02:25:26.518Z,3.00
2023-01-05T02:28:09.891Z,4.93
2023-01-05T02:31:11.017Z,3.07
2023-01-05T02:34:01.236Z,2.30
2023-01-05T02:36:32.687Z,2.87
2023-01-05T02:39:09.915Z,2.63
2023-01-05T02:41:44.525Z,3.37
2023-01-05T02:44:23.901Z,3.20
2023-01-05T02:47:04.161Z,3.33
2023-01-05T02:49:38.446Z,2.60
2023-01-05T02:52:10.609Z,2.57
2023-01-05T02:54:49.150Z,2.57
2023-01-05T02:57:41.943Z,2.50
2023-01-05T03:00:15.411Z,2.53
2023-01-05T03:02:50.126Z,3.10
2023-01-05T03:05:23.673Z,2.97
2023-01-05T03:07:55.348Z,3.63
2023-01-05T03:10:43.292Z,2.20
2023-01-05T03:13:30.578Z,3.30
2023-01-05T03:16:02.556Z,2.43
2023-01-05T03:18:34.300Z,2.93
2023-01-05T03:21:05.401Z,2.63
2023-01-05T03:23:51.269Z,3.10
2023-01-05T03:26:38.265Z,3.03
2023-01-05T03:29:23.598Z,2.40
2023-01-05T03:32:14.921Z,3.40
2023-01-05T03:35:07.923Z,2.47
2023-01-05T03:37:41.127Z,3.00
2023-01-05T03:40:17.393Z,2.70
2023-01-05T03:42:46.739Z,2.53
2023-01-05T03:45:17.523Z,3.13
2023-01-05T03:47:45.648Z,2.77
2023-01-05T03:50:19.324Z,2.90
2023-01-05T03:52:47.677Z,2.43
2023-01-05T03:55:18.057Z,2.40
2023-01-05T03:57:46.771Z,2.30
2023-01-05T04:00:16.696Z,3.37
2023-01-05T04:02:46.055Z,2.90
2023-01-05T04:05:20.460Z,2.87
2023-01-05T04:07:48.712Z,3.23
2023-01-05T04:10:19.382Z,2.90
2023-01-05T04:12:49.543Z,2.97
2023-01-05T04:15:17.900Z,3.30
2023-01-05T04:17:46.395Z,2.70
2023-01-05T04:20:17.037Z,2.87
2023-01-05T04:22:45.464Z,3.23
2023-01-05T04:25:13.708Z,2.93
2023-01-05T04:27:42.355Z,3.63
2023-01-05T04:30:12.485Z,3.60
2023-01-05T04:32:41.016Z,2.70
2023-01-05T04:35:11.533Z,2.70
2023-01-05T04:37:43.275Z,2.60
2023-01-05T04:40:13.244Z,3.20
2023-01-05T04:42:43.578Z,2.50
2023-01-05T04:45:13.043Z,3.40
2023-01-05T04:47:41.401Z,2.97
2023-01-05T04:50:12.184Z,2.33
2023-01-05T04:52:41.412Z,2.87
2023-01-05T04:55:13.152Z,3.37
2023-01-05T04:57:42.588Z,3.00
2023-01-05T05:00:15.222Z,3.00
2023-01-05T05:02:43.906Z,3.73
2023-01-05T05:05:12.709Z,2.10
2023-01-05T05:07:41.201Z,2.73
2023-01-05T05:10:12.365Z,2.53
2023-01-05T05:12:41.666Z,2.60
2023-01-05T05:15:12.342Z,2.67
2023-01-05T05:17:40.728Z,2.60
2023-01-05T05:20:10.490Z,2.57
2023-01-05T05:22:38.939Z,2.87
2023-01-05T05:25:08.789Z,3.30
2023-01-05T05:27:39.043Z,3.33
2023-01-05T05:30:08.801Z,2.87
2023-01-05T05:32:43.822Z,2.40
2023-01-05T05:35:12.682Z,2.83
2023-01-05T05:37:42.189Z,2.67
2023-01-05T05:40:14.242Z,3.20
2023-01-05T05:42:44.349Z,2.90
2023-01-05T05:45:13.467Z,3.27
2023-01-05T05:47:41.923Z,2.87
2023-01-05T05:50:11.052Z,2.80
2023-01-05T05:52:42.142Z,3.20
2023-01-05T05:55:11.273Z,3.67
2023-01-05T05:57:39.463Z,2.80
2023-01-05T06:00:12.193Z,2.83
2023-01-05T06:02:41.203Z,2.70
2023-01-05T06:05:12.962Z,2.53
2023-01-05T06:07:41.605Z,2.40
2023-01-05T06:10:10.771Z,2.43
2023-01-05T06:12:39.675Z,2.67
2023-01-05T06:15:19.507Z,3.13
2023-01-05T06:17:48.657Z,2.73
2023-01-05T06:20:18.459Z,2.63
2023-01-05T06:22:46.959Z,2.30
2023-01-05T06:25:16.088Z,2.60
2023-01-05T06:27:44.559Z,3.47
2023-01-05T06:30:16.413Z,2.77
2023-01-05T06:32:46.418Z,2.70
2023-01-05T06:35:14.713Z,2.43
2023-01-05T06:37:43.598Z,3.10
2023-01-05T06:40:12.678Z,2.70
2023-01-05T06:42:42.509Z,3.40
2023-01-05T06:45:13.890Z,3.23
2023-01-05T06:47:44.149Z,2.90
2023-01-05T06:50:13.421Z,2.67
2023-01-05T06:52:42.090Z,3.10
2023-01-05T06:55:12.228Z,2.50
2023-01-05T06:57:40.930Z,3.13
2023-01-05T07:00:12.962Z,3.13
2023-01-05T07:02:41.544Z,2.83
2023-01-05T07:05:12.957Z,3.07
2023-01-05T07:07:41.662Z,3.23
2023-01-05T07:10:11.266Z,3.13
2023-01-05T07:12:39.544Z,2.73
2023-01-05T07:15:09.113Z,3.43
2023-01-05T07:17:40.437Z,3.50
2023-01-05T07:20:12.286Z,2.90
2023-01-05T07:22:40.636Z,3.37
2023-01-05T07:25:11.630Z,4.07
2023-01-05T07:27:42.823Z,3.13
2023-01-05T07:30:12.962Z,3.50
2023-01-05T07:32:41.469Z,3.03
2023-01-05T07:35:12.081Z,3.70
2023-01-05T07:37:44.564Z,3.60
2023-01-05T07:40:14.094Z,3.40
2023-01-05T07:42:42.973Z,3.37
2023-01-05T07:45:11.931Z,3.80
2023-01-05T07:47:40.976Z,3.30
2023-01-05T07:50:14.260Z,3.37
2023-01-05T07:52:42.587Z,3.03
2023-01-05T07:55:14.652Z,3.23
2023-01-05T07:57:45.385Z,3.77
2023-01-05T08:00:15.564Z,3.40
2023-01-05T08:02:44.488Z,3.40
2023-01-05T08:05:14.425Z,3.83
2023-01-05T08:07:46.028Z,3.53
2023-01-05T08:10:33.033Z,3.17
2023-01-05T08:13:22.863Z,4.27
2023-01-05T08:15:54.276Z,4.20
2023-01-05T08:18:23.983Z,4.07
2023-01-05T08:20:56.143Z,4.40
2023-01-05T08:23:29.644Z,4.53
2023-01-05T08:25:58.637Z,3.13
2023-01-05T08:28:34.786Z,3.77
2023-01-05T08:31:08.840Z,3.73
2023-01-05T08:33:38.728Z,4.37
2023-01-05T08:36:12.894Z,3.33
2023-01-05T08:38:48.765Z,3.97
2023-01-05T08:41:19.887Z,4.17
2023-01-05T08:43:52.331Z,4.30
2023-01-05T08:46:21.085Z,4.73
2023-01-05T08:48:51.150Z,4.33
2023-01-05T08:51:21.869Z,5.33
2023-01-05T08:53:54.020Z,4.53
2023-01-05T08:56:25.267Z,4.90
2023-01-05T08:58:56.822Z,5.63
2023-01-05T09:01:28.338Z,4.67
2023-01-05T09:03:57.846Z,4.73
2023-01-05T09:06:27.565Z,4.77
2023-01-05T09:08:56.770Z,4.10
2023-01-05T09:11:27.204Z,4.57
2023-01-05T09:13:57.607Z,4.23
2023-01-05T09:19:22.135Z,3.63
2023-01-05T09:21:52.922Z,3.47
2023-01-05T09:24:22.515Z,3.57
2023-01-05T09:26:51.061Z,4.30
2023-01-05T09:29:20.740Z,3.50
2023-01-05T09:31:49.403Z,4.20
2023-01-05T09:34:19.258Z,3.03
2023-01-05T09:36:47.903Z,3.30
2023-01-05T09:39:22.051Z,3.43
2023-01-05T09:41:52.916Z,2.97
2023-01-05T09:44:31.046Z,4.83
2023-01-05T09:47:04.146Z,3.73
2023-01-05T09:49:38.427Z,3.50
2023-01-05T09:52:11.061Z,3.30
2023-01-05T09:54:42.507Z,3.87
2023-01-05T09:57:19.092Z,3.50
2023-01-05T09:59:50.541Z,3.37
2023-01-05T10:02:28.661Z,3.73
2023-01-05T10:04:57.785Z,3.63
2023-01-05T10:07:36.518Z,3.60
2023-01-05T10:10:15.962Z,3.10
2023-01-05T10:13:09.347Z,3.80
2023-01-05T10:15:44.612Z,3.33
2023-01-05T10:18:15.835Z,3.93
2023-01-05T10:20:56.348Z,3.23
2023-01-05T10:23:41.580Z,33.47
2023-01-05T10:26:16.439Z,87.97
2023-01-05T10:28:52.918Z,6.83
2023-01-05T10:31:25.596Z,8.90
2023-01-05T10:34:00.217Z,8.63
2023-01-05T10:39:55.909Z,6.37
2023-01-05T10:42:43.677Z,7.07
2023-01-05T10:45:14.900Z,4.10
2023-01-05T10:47:50.543Z,3.47
2023-01-05T10:50:32.940Z,2.50
2023-01-05T10:53:03.815Z,3.37
2023-01-05T10:55:35.146Z,3.43
2023-01-05T10:58:23.379Z,2.73
2023-01-05T11:00:56.128Z,3.07
2023-01-05T11:04:04.334Z,3.50
2023-01-05T11:06:27.541Z,3.70
2023-01-05T11:09:07.111Z,4.47
2023-01-05T11:11:41.530Z,3.57
2023-01-05T11:14:18.784Z,3.60
2023-01-05T11:17:03.214Z,3.77
2023-01-05T11:19:37.233Z,3.57
2023-01-05T11:22:05.710Z,3.87
2023-01-05T11:24:36.265Z,3.20
2023-01-05T11:27:24.882Z,4.60
2023-01-05T11:30:38.323Z,2.97
2023-01-05T11:33:24.778Z,3.60
2023-01-05T11:35:55.054Z,3.40
2023-01-05T11:38:26.703Z,3.43
2023-01-05T11:40:57.359Z,3.90
2023-01-05T11:43:30.533Z,4.40
2023-01-05T11:46:05.199Z,3.77
2023-01-05T11:48:36.710Z,3.93
2023-01-05T11:51:12.888Z,3.17
2023-01-05T11:53:44.022Z,4.13
2023-01-05T11:56:22.190Z,3.47
2023-01-05T11:58:54.712Z,4.17
2023-01-05T12:04:37.365Z,4.43
2023-01-05T12:07:20.840Z,4.37
2023-01-05T12:09:58.084Z,3.60
2023-01-05T12:12:48.260Z,3.73
2023-01-05T12:15:50.347Z,3.53
2023-01-05T12:18:42.967Z,6.07
2023-01-05T12:21:18.076Z,7.93
2023-01-05T12:24:12.262Z,4.63
2023-01-05T12:26:48.004Z,3.73
2023-01-05T12:31:29.457Z,4.07
2023-01-05T12:36:25.438Z,3.67
2023-01-05T12:39:08.815Z,3.20
2023-01-05T12:41:56.340Z,3.63
2023-01-05T12:44:50.644Z,3.20
2023-01-05T12:47:41.263Z,3.67
2023-01-05T12:50:24.464Z,3.60
2023-01-05T12:53:07.949Z,3.57
2023-01-05T12:55:43.381Z,2.87
2023-01-05T12:58:16.323Z,3.30
2023-01-05T13:00:56.551Z,3.30
2023-01-05T13:03:29.856Z,3.60
2023-01-05T13:06:07.456Z,3.67
2023-01-05T13:08:43.055Z,3.80
2023-01-05T13:11:19.625Z,5.40
2023-01-05T13:13:53.188Z,4.53
2023-01-05T13:16:24.999Z,15.47
2023-01-05T13:18:59.299Z,7.77
2023-01-05T13:21:41.148Z,3.70
2023-01-05T13:24:21.307Z,3.60
2023-01-05T13:26:52.263Z,3.40
2023-01-05T13:29:39.733Z,3.30
2023-01-05T13:32:39.078Z,3.47
2023-01-05T13:35:31.920Z,3.20
2023-01-05T13:38:27.468Z,3.83
2023-01-05T13:41:17.499Z,3.40
2023-01-05T13:44:16.809Z,3.43
2023-01-05T13:47:04.758Z,3.90
2023-01-05T13:50:04.305Z,3.53
2023-01-05T13:52:49.916Z,3.20
2023-01-05T13:55:26.180Z,3.50
2023-01-05T13:57:57.784Z,3.90
2023-01-05T14:00:32.140Z,2.90
2023-01-05T14:03:08.576Z,3.37
2023-01-05T14:05:50.884Z,3.40
2023-01-05T14:08:25.245Z,3.53
2023-01-05T14:11:15.658Z,3.10
2023-01-05T14:14:05.211Z,3.70
2023-01-05T14:16:58.837Z,2.57
2023-01-05T14:19:52.278Z,3.23
2023-01-05T14:22:35.374Z,2.83
2023-01-05T14:25:40.810Z,3.40
2023-01-05T14:28:24.458Z,3.00
2023-01-05T14:31:47.895Z,2.93
2023-01-05T14:34:19.235Z,2.70
2023-01-05T14:37:10.559Z,2.67
2023-01-05T14:39:44.892Z,2.40
2023-01-05T14:42:27.728Z,14.13
2023-01-05T14:45:01.204Z,3.20
2023-01-05T14:47:43.071Z,3.33
2023-01-05T14:50:32.670Z,3.07
2023-01-05T14:53:05.501Z,3.03
2023-01-05T14:55:39.366Z,2.73
2023-01-05T14:58:13.999Z,2.87
2023-01-05T15:00:47.132Z,3.10
2023-01-05T15:03:25.902Z,2.60
2023-01-05T15:06:03.741Z,2.97
2023-01-05T15:08:53.802Z,2.53
2023-01-05T15:11:40.374Z,2.43
2023-01-05T15:14:35.443Z,2.70
2023-01-05T15:17:27.924Z,2.87
2023-01-05T15:20:30.344Z,2.67
2023-01-05T15:23:19.592Z,2.10
2023-01-05T15:26:28.177Z,2.70
2023-01-05T15:29:36.037Z,2.47
2023-01-05T15:32:13.865Z,2.43
2023-01-05T15:34:49.090Z,3.03
2023-01-05T15:37:24.908Z,2.90
2023-01-05T15:39:55.685Z,2.40
2023-01-05T15:42:34.484Z,2.60
2023-01-05T15:45:03.360Z,5.67
2023-01-05T15:47:32.083Z,3.33
2023-01-05T15:50:02.845Z,3.27
2023-01-05T15:52:36.434Z,3.20
2023-01-05T15:55:13.315Z,3.67
2023-01-05T15:57:45.205Z,2.67
2023-01-05T16:00:18.181Z,3.00
2023-01-05T16:02:46.845Z,2.97
2023-01-05T16:05:18.055Z,2.57
2023-01-05T16:07:55.084Z,2.40
2023-01-05T16:10:27.541Z,2.53
2023-01-05T16:13:01.489Z,2.17
2023-01-05T16:15:34.167Z,3.67
2023-01-05T16:18:04.802Z,4.00
2023-01-05T16:20:33.671Z,5.77
2023-01-05T16:23:10.042Z,20.13
2023-01-05T16:25:43.303Z,4.00
2023-01-05T16:28:17.774Z,2.73
2023-01-05T16:30:47.869Z,2.60
2023-01-05T16:33:30.481Z,2.07
2023-01-05T16:36:20.268Z,2.63
2023-01-05T16:38:52.592Z,2.47
2023-01-05T16:41:25.810Z,3.17
2023-01-05T16:43:59.694Z,3.03
2023-01-05T16:46:43.043Z,2.93
2023-01-05T16:49:33.636Z,3.07
2023-01-05T16:52:04.341Z,3.60
2023-01-05T16:54:42.486Z,3.13
2023-01-05T16:57:32.226Z,3.67
2023-01-05T17:00:02.754Z,4.57
2023-01-05T17:02:45.780Z,3.30
2023-01-05T17:05:19.877Z,3.93
2023-01-05T17:07:52.418Z,5.10
2023-01-05T17:10:27.260Z,5.73
2023-01-05T17:13:03.787Z,4.80
2023-01-05T17:15:35.143Z,4.33
2023-01-05T17:18:15.127Z,3.60
2023-01-05T17:20:46.975Z,3.33
2023-01-05T17:23:19.979Z,3.83
2023-01-05T17:28:24.568Z,3.43
2023-01-05T17:30:54.533Z,4.27
2023-01-05T17:33:23.566Z,4.00
2023-01-05T17:35:52.297Z,3.63
2023-01-05T17:38:20.984Z,6.50
2023-01-05T17:40:52.471Z,4.90
2023-01-05T17:43:23.347Z,8.13
2023-01-05T17:45:52.895Z,10.97
2023-01-05T17:48:21.512Z,8.23
2023-01-05T17:50:54.240Z,5.20
2023-01-05T17:53:24.593Z,9.50
2023-01-05T17:55:54.447Z,13.27
2023-01-05T17:58:26.457Z,25.97
2023-01-05T18:00:55.790Z,70.87
2023-01-05T18:03:28.494Z,99.07
2023-01-05T18:05:57.022Z,43.97
2023-01-05T18:08:26.903Z,25.83
2023-01-05T18:10:56.841Z,4.33
2023-01-05T18:13:25.051Z,5.20
2023-01-05T18:15:55.547Z,3.77
2023-01-05T18:18:30.393Z,4.20
2023-01-05T18:21:01.470Z,4.03
2023-01-05T18:23:34.276Z,4.70
2023-01-05T18:26:10.641Z,5.07
2023-01-05T18:28:41.749Z,6.00
2023-01-05T18:31:16.794Z,4.97
2023-01-05T18:33:45.849Z,4.53
2023-01-05T18:36:18.823Z,4.40
2023-01-05T18:38:48.137Z,5.00
2023-01-05T18:41:25.396Z,4.33
2023-01-05T18:43:54.012Z,4.73
2023-01-05T18:46:22.841Z,4.53
2023-01-05T18:48:57.009Z,4.40
2023-01-05T18:51:25.553Z,3.97
2023-01-05T18:53:54.264Z,4.20
2023-01-05T18:56:25.631Z,3.57
2023-01-05T18:58:55.447Z,3.73
2023-01-05T19:01:25.157Z,3.87
2023-01-05T19:03:55.030Z,3.93
2023-01-05T19:06:25.882Z,4.03
2023-01-05T19:08:57.364Z,4.30
2023-01-05T19:11:30.507Z,4.50
2023-01-05T19:14:04.502Z,3.97
2023-01-05T19:16:35.442Z,4.60
2023-01-05T19:19:08.989Z,3.97
2023-01-05T19:21:53.624Z,4.27
2023-01-05T19:24:26.905Z,4.80
2023-01-05T19:27:09.614Z,3.80
2023-01-05T19:29:38.562Z,4.50
2023-01-05T19:32:07.295Z,4.27
2023-01-05T19:34:38.864Z,4.87
2023-01-05T19:37:08.043Z,5.33
2023-01-05T19:39:36.941Z,5.47
2023-01-05T19:42:08.699Z,4.83
2023-01-05T19:44:37.306Z,5.90
2023-01-05T19:47:05.683Z,5.73
2023-01-05T19:49:35.536Z,6.23
2023-01-05T19:52:04.265Z,6.60
2023-01-05T19:54:33.912Z,5.80
2023-01-05T19:57:03.649Z,6.27
2023-01-05T19:59:34.654Z,5.17
2023-01-05T20:02:04.074Z,5.03
2023-01-05T20:04:33.877Z,5.33
2023-01-05T20:07:04.116Z,4.50
2023-01-05T20:09:33.626Z,4.53
2023-01-05T20:12:13.923Z,4.60
2023-01-05T20:14:47.943Z,4.40
2023-01-05T20:17:17.326Z,3.60
2023-01-05T20:19:47.715Z,4.03
2023-01-05T20:22:16.144Z,3.90
2023-01-05T20:24:45.786Z,4.37
2023-01-05T20:27:15.824Z,4.50
2023-01-05T20:29:48.197Z,4.60
2023-01-05T20:32:19.797Z,4.97
2023-01-05T20:34:55.926Z,4.33
2023-01-05T20:37:27.289Z,4.00
2023-01-05T20:39:57.709Z,3.90
2023-01-05T20:42:26.167Z,4.33
2023-01-05T20:44:56.648Z,4.20
2023-01-05T20:47:26.186Z,4.37
2023-01-05T20:49:57.230Z,4.33
2023-01-05T20:52:26.214Z,4.83
2023-01-05T20:54:55.978Z,3.90
2023-01-05T20:57:24.893Z,4.60
2023-01-05T20:59:53.774Z,5.70
2023-01-05T21:02:24.862Z,5.63
2023-01-05T21:04:56.614Z,5.03
2023-01-05T21:07:26.036Z,8.60
2023-01-05T21:09:56.229Z,5.63
2023-01-05T21:12:24.664Z,6.40
2023-01-05T21:14:54.652Z,5.70
2023-01-05T21:17:27.338Z,5.03
2023-01-05T21:19:55.859Z,5.07
2023-01-05T21:22:26.167Z,5.47
2023-01-05T21:24:55.297Z,5.53
2023-01-05T21:27:29.051Z,5.57
2023-01-05T21:29:57.865Z,5.70
2023-01-05T21:32:32.889Z,5.33
2023-01-05T21:35:01.549Z,4.93
2023-01-05T21:37:31.846Z,4.53
2023-01-05T21:40:00.459Z,4.97
2023-01-05T21:42:45.415Z,4.40
2023-01-05T21:45:16.631Z,4.50
2023-01-05T21:47:47.210Z,4.67
2023-01-05T21:50:38.382Z,4.60
2023-01-05T21:53:29.904Z,4.40
2023-01-05T21:56:15.667Z,5.33
2023-01-05T21:58:43.999Z,5.37
2023-01-05T22:01:13.934Z,5.53
2023-01-05T22:03:45.447Z,5.47
2023-01-05T22:06:15.934Z,5.23
2023-01-05T22:08:45.233Z,4.83
2023-01-05T22:11:14.023Z,6.50
2023-01-05T22:13:42.898Z,5.67
2023-01-05T22:16:11.822Z,5.37
2023-01-05T22:18:41.052Z,5.70
2023-01-05T22:21:15.873Z,6.03
2023-01-05T22:23:45.895Z,6.10
2023-01-05T22:26:20.747Z,5.77
2023-01-05T22:28:52.174Z,5.97
2023-01-05T22:31:22.975Z,6.43
2023-01-05T22:33:58.139Z,5.90
2023-01-05T22:36:30.969Z,5.37
2023-01-05T22:39:00.902Z,5.50
2023-01-05T22:41:31.754Z,5.20
2023-01-05T22:44:09.257Z,5.50
2023-01-05T22:46:38.225Z,5.60
2023-01-05T22:49:06.912Z,5.80
2023-01-05T22:51:49.666Z,6.80
2023-01-05T22:54:19.491Z,7.20
2023-01-05T22:56:49.729Z,6.50
2023-01-05T22:59:18.509Z,7.33
2023-01-05T23:01:49.281Z,7.17
2023-01-05T23:04:20.621Z,6.37
2023-01-05T23:06:50.496Z,6.33
2023-01-05T23:09:19.853Z,7.23
2023-01-05T23:11:49.721Z,6.53
2023-01-05T23:14:19.379Z,6.77
2023-01-05T23:16:48.087Z,7.03
2023-01-05T23:19:17.344Z,6.67
2023-01-05T23:21:47.105Z,6.57
2023-01-05T23:24:17.619Z,6.30
2023-01-05T23:26:46.038Z,7.13
2023-01-05T23:29:14.504Z,6.47
2023-01-05T23:31:43.326Z,7.13
2023-01-05T23:34:11.753Z,6.97
2023-01-05T23:36:41.988Z,7.23
2023-01-05T23:39:10.668Z,7.63
2023-01-05T23:41:42.213Z,7.50
2023-01-05T23:44:12.197Z,7.20
2023-01-05T23:46:41.497Z,7.67
2023-01-05T23:49:10.596Z,7.00
2023-01-05T23:51:39.009Z,7.40
2023-01-05T23:54:07.614Z,7.97
2023-01-05T23:56:37.464Z,7.97
2023-01-05T23:59:14.283Z,8.20
